Time;durP1;ratioP1;P1;durP2;ratioP2;P2;SDS_P1;SDS_P2;PMS_P1;PMS_P2;Temp;Humidity;BMP_temperature;BMP_pressure;BME280_temperature;BME280_humidity;BME280_pressure;Samples;Min_cycle;Max_cycle;Signal;HPM_P1;HPM_P2
2022/09/11 00:01:57;;;;;;;24.80;22.30;;;30.50;34.70;;;;;;5112161;28;20461;-69
2022/09/11 00:04:28;;;;;;;24.37;22.00;;;30.30;33.90;;;;;;5103174;28;20454;-70
2022/09/11 00:06:59;;;;;;;24.60;22.10;;;30.30;34.10;;;;;;5099039;28;20460;-71
2022/09/11 00:09:30;;;;;;;24.37;22.00;;;30.20;34.80;;;;;;5110739;28;20478;-69
2022/09/11 00:12:03;;;;;;;24.27;21.87;;;30.10;35.50;;;;;;5107288;28;20468;-71
2022/09/11 00:14:35;;;;;;;25.50;23.00;;;30.00;35.40;;;;;;5109037;28;20461;-69
2022/09/11 00:17:05;;;;;;;25.23;22.63;;;30.00;35.30;;;;;;5106597;28;20543;-70
2022/09/11 00:19:39;;;;;;;26.17;23.47;;;30.00;35.70;;;;;;5104468;28;20460;-70
2022/09/11 00:22:10;;;;;;;24.40;22.00;;;29.90;34.20;;;;;;5116377;28;20456;-70
2022/09/11 00:24:41;;;;;;;24.77;22.27;;;29.80;34.40;;;;;;5107814;28;20468;-69
2022/09/11 00:27:14;;;;;;;25.33;22.90;;;29.80;36.80;;;;;;5101455;28;20825;-69
2022/09/11 00:29:45;;;;;;;25.90;23.10;;;29.70;36.10;;;;;;5103681;28;20513;-70
2022/09/11 00:32:16;;;;;;;25.70;23.10;;;29.60;36.20;;;;;;5105428;28;20480;-69
2022/09/11 00:34:46;;;;;;;24.57;22.13;;;29.50;35.70;;;;;;5102763;28;20523;-69
2022/09/11 00:37:17;;;;;;;27.90;25.17;;;29.60;36.70;;;;;;5098494;28;20466;-72
2022/09/11 00:39:49;;;;;;;26.50;23.80;;;29.60;36.30;;;;;;5104115;28;20493;-72
2022/09/11 00:42:22;;;;;;;28.87;25.97;;;29.50;36.20;;;;;;5107450;28;20472;-73
2022/09/11 00:45:01;;;;;;;26.30;23.80;;;29.50;36.20;;;;;;5103355;28;21226;-73
2022/09/11 00:47:33;;;;;;;26.07;23.53;;;29.60;35.60;;;;;;5106718;28;20514;-74
2022/09/11 00:50:13;;;;;;;28.00;25.10;;;29.50;36.80;;;;;;5106600;28;20470;-74
2022/09/11 00:52:52;;;;;;;26.90;24.20;;;29.50;34.90;;;;;;5112901;28;20456;-72
2022/09/11 00:55:27;;;;;;;26.67;24.07;;;29.30;36.70;;;;;;5106605;28;20487;-74
2022/09/11 00:58:01;;;;;;;26.63;23.80;;;29.20;36.70;;;;;;5106774;28;21082;-73
2022/09/11 01:00:32;;;;;;;25.83;23.30;;;29.00;36.00;;;;;;5106066;28;20491;-74
2022/09/11 01:03:03;;;;;;;26.80;24.00;;;28.90;36.90;;;;;;5107662;28;20468;-71
2022/09/11 01:05:38;;;;;;;26.87;24.07;;;28.80;38.20;;;;;;5097108;28;20458;-72
2022/09/11 01:08:09;;;;;;;27.30;24.47;;;28.70;37.10;;;;;;5102894;28;20881;-72
2022/09/11 01:10:50;;;;;;;27.30;24.63;;;28.60;37.60;;;;;;5111879;28;20875;-71
2022/09/11 01:13:34;;;;;;;28.10;25.20;;;28.50;36.70;;;;;;5122475;28;20502;-69
2022/09/11 01:16:17;;;;;;;30.47;27.23;;;28.50;37.70;;;;;;5106522;28;20484;-68
2022/09/11 01:18:56;;;;;;;26.83;23.83;;;28.60;37.50;;;;;;5110661;28;20502;-72
2022/09/11 01:22:12;;;;;;;28.93;25.93;;;28.60;36.90;;;;;;5124402;28;20477;-68
2022/09/11 01:25:00;;;;;;;28.07;25.10;;;28.60;38.00;;;;;;5099660;28;20445;-71
2022/09/11 01:27:47;;;;;;;28.97;25.80;;;28.60;36.90;;;;;;5106597;28;20479;-71
2022/09/11 01:30:20;;;;;;;26.93;24.13;;;28.50;37.80;;;;;;5117564;28;20457;-71
2022/09/11 01:33:16;;;;;;;27.73;24.80;;;28.40;38.10;;;;;;5112203;28;20468;-70
2022/09/11 01:35:56;;;;;;;28.10;25.10;;;28.30;40.00;;;;;;5102719;28;20466;-73
2022/09/11 01:38:34;;;;;;;28.67;25.67;;;28.20;39.00;;;;;;5103808;28;20485;-69
2022/09/11 01:41:08;;;;;;;28.13;24.80;;;28.00;38.90;;;;;;5112474;28;20559;-72
2022/09/11 01:43:44;;;;;;;30.43;27.20;;;28.00;38.90;;;;;;5109061;28;20468;-70
2022/09/11 01:46:21;;;;;;;29.13;26.10;;;27.80;40.40;;;;;;5102371;28;20454;-71
2022/09/11 01:48:59;;;;;;;30.40;27.27;;;27.60;39.80;;;;;;5105516;28;20472;-73
2022/09/11 01:51:33;;;;;;;30.63;27.53;;;27.50;37.80;;;;;;5121473;28;20449;-72
2022/09/11 01:54:07;;;;;;;32.10;28.80;;;27.50;39.10;;;;;;5100846;28;20535;-72
2022/09/11 01:56:43;;;;;;;33.17;29.70;;;27.30;40.40;;;;;;5097876;28;20458;-69
2022/09/11 01:59:20;;;;;;;31.87;28.40;;;27.10;40.90;;;;;;5097950;28;20455;-69
2022/09/11 02:01:55;;;;;;;37.60;31.33;;;27.00;40.70;;;;;;5117393;28;20493;-69
2022/09/11 02:04:29;;;;;;;36.37;32.60;;;26.90;40.30;;;;;;5108348;28;20492;-69
2022/09/11 02:07:04;;;;;;;47.57;42.57;;;26.80;40.20;;;;;;5128132;28;20440;-67
2022/09/11 02:09:40;;;;;;;35.70;31.90;;;26.90;40.40;;;;;;5109106;28;20470;-71
2022/09/11 02:12:14;;;;;;;37.70;33.90;;;26.90;40.20;;;;;;5102978;28;20467;-69
2022/09/11 02:14:50;;;;;;;36.73;31.90;;;26.90;40.70;;;;;;5109041;28;20484;-68
2022/09/11 02:17:28;;;;;;;36.47;32.30;;;26.70;41.20;;;;;;5103130;28;20488;-71
2022/09/11 02:20:01;;;;;;;35.40;30.70;;;26.60;41.70;;;;;;5115275;28;20513;-74
2022/09/11 02:22:32;;;;;;;35.90;30.97;;;26.50;39.80;;;;;;5109669;28;20493;-74
2022/09/11 02:25:03;;;;;;;33.90;29.93;;;26.30;41.70;;;;;;5110089;28;20542;-68
2022/09/11 02:27:34;;;;;;;34.43;30.40;;;26.30;39.50;;;;;;5111556;28;20469;-72
2022/09/11 02:30:07;;;;;;;35.30;30.10;;;26.30;41.50;;;;;;5113127;28;20507;-72
2022/09/11 02:32:41;;;;;;;36.37;32.57;;;26.00;43.50;;;;;;5108558;28;20507;-71
2022/09/11 02:35:15;;;;;;;38.13;32.80;;;25.80;43.10;;;;;;5098314;28;20493;-75
2022/09/11 02:37:54;;;;;;;33.73;30.20;;;25.60;43.60;;;;;;5107520;28;20469;-73
2022/09/11 02:40:40;;;;;;;35.90;32.10;;;25.50;42.50;;;;;;5106598;28;20524;-75
2022/09/11 02:43:26;;;;;;;36.30;32.30;;;25.30;42.70;;;;;;5106037;28;20505;-70
2022/09/11 02:46:15;;;;;;;36.70;31.80;;;25.30;41.80;;;;;;5107737;28;20850;-71
2022/09/11 02:48:54;;;;;;;36.30;30.40;;;25.20;42.70;;;;;;5106979;28;20439;-70
2022/09/11 02:51:32;;;;;;;32.80;29.20;;;25.10;42.50;;;;;;5106381;28;20455;-71
2022/09/11 02:54:12;;;;;;;33.10;28.73;;;25.10;42.10;;;;;;5103059;28;20527;-71
2022/09/11 02:56:48;;;;;;;34.67;29.73;;;25.00;42.30;;;;;;5105757;28;20798;-71
2022/09/11 02:59:23;;;;;;;36.07;30.67;;;25.00;42.30;;;;;;5105019;28;20447;-70
2022/09/11 03:02:00;;;;;;;34.93;29.87;;;25.10;41.80;;;;;;5106944;28;20480;-70
2022/09/11 03:04:33;;;;;;;40.77;33.80;;;25.20;41.90;;;;;;5105511;28;20478;-69
2022/09/11 03:07:04;;;;;;;36.20;30.73;;;25.20;42.10;;;;;;5101555;28;20455;-70
2022/09/11 03:09:35;;;;;;;36.60;30.93;;;25.40;40.90;;;;;;5115573;28;20486;-69
2022/09/11 03:12:06;;;;;;;33.60;28.33;;;25.40;41.30;;;;;;5107055;28;20471;-68
2022/09/11 03:14:37;;;;;;;34.77;30.87;;;25.30;42.20;;;;;;5105445;28;20461;-69
2022/09/11 03:17:12;;;;;;;36.20;30.90;;;25.00;42.60;;;;;;5110100;28;20479;-68
2022/09/11 03:19:42;;;;;;;37.10;31.57;;;25.00;41.10;;;;;;5113929;28;20490;-66
2022/09/11 03:22:15;;;;;;;33.20;28.90;;;25.00;41.70;;;;;;5108282;28;20609;-69
2022/09/11 03:24:46;;;;;;;36.07;31.07;;;24.80;41.70;;;;;;5106130;28;20532;-67
2022/09/11 03:27:17;;;;;;;38.13;33.30;;;24.90;42.70;;;;;;5105295;28;20495;-66
2022/09/11 03:29:48;;;;;;;33.47;29.50;;;24.70;42.20;;;;;;5109568;28;20493;-66
2022/09/11 03:32:21;;;;;;;33.13;28.93;;;24.60;42.70;;;;;;5104516;28;20869;-66
2022/09/11 03:34:52;;;;;;;32.63;28.37;;;24.40;43.10;;;;;;5085468;28;20454;-67
2022/09/11 03:37:23;;;;;;;33.20;29.60;;;24.30;43.00;;;;;;5111542;28;20501;-66
2022/09/11 03:39:54;;;;;;;31.20;27.87;;;24.60;41.30;;;;;;5096225;28;20467;-67
2022/09/11 03:42:26;;;;;;;34.73;30.07;;;24.60;42.20;;;;;;5106405;28;20498;-68
2022/09/11 03:44:56;;;;;;;35.33;30.43;;;24.60;41.70;;;;;;5096881;28;20823;-67
2022/09/11 03:47:29;;;;;;;34.83;30.73;;;24.50;43.40;;;;;;5093536;28;20524;-67
2022/09/11 03:50:00;;;;;;;32.47;28.93;;;24.40;43.70;;;;;;5090180;28;20448;-66
2022/09/11 03:52:30;;;;;;;32.37;28.53;;;24.20;43.30;;;;;;5105037;28;20466;-66
2022/09/11 03:55:01;;;;;;;32.40;27.30;;;24.20;43.80;;;;;;5100103;28;20461;-65
2022/09/11 03:57:34;;;;;;;34.53;28.63;;;24.20;42.30;;;;;;5099051;28;20451;-66
2022/09/11 04:00:06;;;;;;;33.20;29.77;;;24.20;42.60;;;;;;5108142;28;20458;-66
2022/09/11 04:02:38;;;;;;;33.50;29.57;;;24.00;44.40;;;;;;5110971;28;20981;-67
2022/09/11 04:05:10;;;;;;;33.00;28.40;;;23.90;43.90;;;;;;5104946;28;20440;-69
2022/09/11 04:07:41;;;;;;;35.70;28.53;;;23.70;45.60;;;;;;5108605;28;20516;-66
2022/09/11 04:10:12;;;;;;;39.00;30.07;;;23.60;44.80;;;;;;5108330;28;20441;-66
2022/09/11 04:12:43;;;;;;;34.47;28.97;;;23.60;45.60;;;;;;5124752;28;20483;-68
2022/09/11 04:15:14;;;;;;;29.77;26.53;;;23.50;44.80;;;;;;5116403;28;20974;-67
2022/09/11 04:17:48;;;;;;;34.37;26.80;;;23.70;44.30;;;;;;5100632;28;20479;-68
2022/09/11 04:20:19;;;;;;;32.90;27.47;;;23.60;44.80;;;;;;5116640;28;20446;-69
2022/09/11 04:22:52;;;;;;;33.73;27.70;;;23.50;45.80;;;;;;5124523;28;20485;-67
2022/09/11 04:25:24;;;;;;;34.83;29.27;;;23.30;45.90;;;;;;5107809;27;20479;-66
2022/09/11 04:27:55;;;;;;;34.30;28.67;;;23.30;46.40;;;;;;5114814;28;20498;-65
2022/09/11 04:30:25;;;;;;;36.00;28.80;;;23.20;46.40;;;;;;5114926;28;20454;-68
2022/09/11 04:32:58;;;;;;;31.70;28.10;;;23.10;46.80;;;;;;5111618;28;20477;-66
2022/09/11 04:35:29;;;;;;;29.43;25.43;;;22.90;47.30;;;;;;5119030;28;20457;-68
2022/09/11 04:37:59;;;;;;;30.80;27.50;;;22.90;46.60;;;;;;5124718;28;20991;-65
2022/09/11 04:40:30;;;;;;;30.87;27.60;;;22.90;48.40;;;;;;5112564;28;20457;-66
2022/09/11 04:43:01;;;;;;;33.33;25.90;;;22.80;47.70;;;;;;5117954;28;20603;-67
2022/09/11 04:45:32;;;;;;;29.97;26.40;;;22.70;48.20;;;;;;5096233;28;20543;-66
2022/09/11 04:48:05;;;;;;;32.57;28.13;;;22.60;48.40;;;;;;5103990;28;20551;-66
2022/09/11 04:50:36;;;;;;;34.77;27.90;;;22.50;48.60;;;;;;5099163;28;20466;-66
2022/09/11 04:53:06;;;;;;;32.53;25.87;;;22.50;49.00;;;;;;5097978;28;20460;-66
2022/09/11 04:55:37;;;;;;;30.73;26.47;;;22.40;48.80;;;;;;5103223;28;20459;-66
2022/09/11 04:58:08;;;;;;;30.37;25.00;;;22.20;50.50;;;;;;5104841;28;20463;-66
2022/09/11 05:00:39;;;;;;;29.53;26.13;;;22.20;50.20;;;;;;5112016;28;20519;-67
2022/09/11 05:03:12;;;;;;;29.43;25.50;;;22.10;50.40;;;;;;5101733;28;20493;-67
2022/09/11 05:05:43;;;;;;;28.87;25.77;;;22.00;51.70;;;;;;5101439;28;20459;-66
2022/09/11 05:08:14;;;;;;;31.20;26.13;;;21.90;51.00;;;;;;5097940;28;20481;-67
2022/09/11 05:10:45;;;;;;;31.80;25.90;;;21.90;50.30;;;;;;5105613;28;20501;-67
2022/09/11 05:13:16;;;;;;;31.40;26.40;;;21.90;50.90;;;;;;5105454;28;20458;-68
2022/09/11 05:15:47;;;;;;;32.70;27.07;;;21.90;52.00;;;;;;5100495;28;20484;-67
2022/09/11 05:18:19;;;;;;;29.67;25.00;;;21.80;53.90;;;;;;5102861;28;20482;-67
2022/09/11 05:20:59;;;;;;;30.57;26.47;;;21.70;51.60;;;;;;5112030;28;20487;-67
2022/09/11 05:23:30;;;;;;;30.13;25.33;;;21.60;53.20;;;;;;5101738;28;20486;-66
2022/09/11 05:26:01;;;;;;;27.90;24.10;;;21.50;53.50;;;;;;5103249;28;20466;-68
2022/09/11 05:28:33;;;;;;;29.50;25.30;;;21.40;53.50;;;;;;5102754;28;20458;-67
2022/09/11 05:31:12;;;;;;;31.93;26.00;;;21.30;53.30;;;;;;5114988;28;20445;-67
2022/09/11 05:33:46;;;;;;;29.27;24.70;;;21.20;54.60;;;;;;5106714;28;20464;-67
2022/09/11 05:36:17;;;;;;;30.40;26.37;;;21.20;55.10;;;;;;5109327;28;20519;-67
2022/09/11 05:38:48;;;;;;;28.83;24.10;;;21.10;55.60;;;;;;5109079;28;20866;-67
2022/09/11 05:41:19;;;;;;;27.70;24.70;;;21.00;55.40;;;;;;5116852;28;20492;-67
2022/09/11 05:43:50;;;;;;;31.10;25.80;;;21.00;56.20;;;;;;5122689;28;20481;-67
2022/09/11 05:46:21;;;;;;;30.90;26.00;;;20.90;55.00;;;;;;5101585;28;20454;-67
2022/09/11 05:48:54;;;;;;;29.63;24.87;;;20.90;54.30;;;;;;5102972;28;20455;-67
2022/09/11 05:51:25;;;;;;;29.70;24.97;;;20.80;56.00;;;;;;5111646;28;20481;-67
2022/09/11 05:53:57;;;;;;;31.70;25.87;;;20.80;56.80;;;;;;5104251;28;20492;-67
2022/09/11 05:56:28;;;;;;;29.83;24.53;;;20.70;56.40;;;;;;5102754;28;20462;-66
2022/09/11 05:58:59;;;;;;;27.17;23.97;;;20.60;57.80;;;;;;5110076;28;20512;-67
2022/09/11 06:01:30;;;;;;;29.90;24.33;;;20.60;58.20;;;;;;5115323;28;20515;-67
2022/09/11 06:04:03;;;;;;;31.10;24.77;;;20.50;58.40;;;;;;5102635;28;20529;-67
2022/09/11 06:06:33;;;;;;;30.10;25.23;;;20.50;58.80;;;;;;5102436;28;20454;-67
2022/09/11 06:09:05;;;;;;;30.33;24.27;;;20.40;59.80;;;;;;5102810;28;20465;-67
2022/09/11 06:11:36;;;;;;;32.47;26.23;;;20.40;60.20;;;;;;5099811;28;20581;-67
2022/09/11 06:14:07;;;;;;;30.97;26.63;;;20.30;60.90;;;;;;5109522;28;20488;-67
2022/09/11 06:16:39;;;;;;;28.90;25.17;;;20.20;59.70;;;;;;5100745;28;20459;-66
2022/09/11 06:19:12;;;;;;;27.90;24.87;;;20.20;61.90;;;;;;5101594;28;20566;-67
2022/09/11 06:21:43;;;;;;;33.00;24.10;;;20.10;62.80;;;;;;5110877;28;20454;-67
2022/09/11 06:24:14;;;;;;;31.50;25.93;;;20.10;62.60;;;;;;5100030;28;20490;-67
2022/09/11 06:26:45;;;;;;;30.20;24.30;;;20.10;63.00;;;;;;5115154;28;20432;-67
2022/09/11 06:29:16;;;;;;;30.27;24.23;;;20.00;62.90;;;;;;5107538;28;20968;-67
2022/09/11 06:31:50;;;;;;;32.17;25.50;;;20.00;63.70;;;;;;5108469;28;20457;-67
2022/09/11 06:34:22;;;;;;;31.70;25.53;;;19.90;63.40;;;;;;5098987;28;20481;-67
2022/09/11 06:36:54;;;;;;;31.43;25.90;;;19.90;66.10;;;;;;5100483;28;20453;-66
2022/09/11 06:39:25;;;;;;;30.47;24.60;;;19.90;65.80;;;;;;5110314;28;20525;-66
2022/09/11 06:41:56;;;;;;;34.93;25.30;;;19.80;66.90;;;;;;5111132;28;20463;-67
2022/09/11 06:44:27;;;;;;;31.00;24.53;;;19.90;67.70;;;;;;5102308;28;20530;-67
2022/09/11 06:46:58;;;;;;;31.97;25.40;;;19.80;67.30;;;;;;5104265;28;20427;-66
2022/09/11 06:49:31;;;;;;;28.80;24.87;;;19.80;66.30;;;;;;5106872;28;20451;-66
2022/09/11 06:52:02;;;;;;;25.83;23.03;;;19.70;66.80;;;;;;5124601;28;20416;-66
2022/09/11 06:54:33;;;;;;;28.93;24.60;;;19.70;67.00;;;;;;5118848;28;20473;-66
2022/09/11 06:57:04;;;;;;;35.60;25.10;;;19.70;68.80;;;;;;5106169;28;20458;-66
2022/09/11 06:59:34;;;;;;;28.83;24.57;;;19.70;69.40;;;;;;5109629;28;20484;-66
2022/09/11 07:02:05;;;;;;;28.67;24.87;;;19.60;67.20;;;;;;5111522;28;20469;-66
2022/09/11 07:04:38;;;;;;;28.33;24.87;;;19.50;68.50;;;;;;5104860;28;20536;-66
2022/09/11 07:07:09;;;;;;;32.87;25.13;;;19.50;69.20;;;;;;5111828;28;20951;-66
2022/09/11 07:09:39;;;;;;;31.87;24.80;;;19.50;69.00;;;;;;5107673;28;20536;-66
2022/09/11 07:12:10;;;;;;;27.10;24.07;;;19.50;69.70;;;;;;5110409;28;20462;-65
2022/09/11 07:14:41;;;;;;;31.07;25.73;;;19.40;69.10;;;;;;5114919;28;20536;-67
2022/09/11 07:17:12;;;;;;;29.17;24.20;;;19.40;69.70;;;;;;5104140;28;20467;-66
2022/09/11 07:19:44;;;;;;;27.47;24.23;;;19.40;71.60;;;;;;5108649;28;20459;-67
2022/09/11 07:22:15;;;;;;;30.67;24.83;;;19.40;70.90;;;;;;5118158;28;20484;-67
2022/09/11 07:24:46;;;;;;;37.90;26.30;;;19.40;72.40;;;;;;5105547;28;20473;-66
2022/09/11 07:27:18;;;;;;;31.70;25.97;;;19.40;72.10;;;;;;5106694;28;20459;-66
2022/09/11 07:29:49;;;;;;;35.83;25.20;;;19.40;73.20;;;;;;5104818;28;20492;-66
2022/09/11 07:32:20;;;;;;;33.07;25.97;;;19.30;71.60;;;;;;5122122;28;20489;-66
2022/09/11 07:34:52;;;;;;;29.43;24.30;;;19.30;73.70;;;;;;5104049;28;20526;-66
2022/09/11 07:37:23;;;;;;;27.83;23.90;;;19.30;73.00;;;;;;5110600;28;20455;-66
2022/09/11 07:39:54;;;;;;;28.00;24.90;;;19.30;73.20;;;;;;5105849;28;20454;-66
2022/09/11 07:42:24;;;;;;;32.53;24.40;;;19.30;73.50;;;;;;5112077;28;20986;-66
2022/09/11 07:44:55;;;;;;;32.10;25.43;;;19.40;75.70;;;;;;5104037;28;20837;-66
2022/09/11 07:47:27;;;;;;;29.53;26.30;;;19.40;76.10;;;;;;5097812;28;20463;-66
2022/09/11 07:49:59;;;;;;;33.17;26.53;;;19.40;75.80;;;;;;5118685;28;20454;-66
2022/09/11 07:52:30;;;;;;;34.10;25.40;;;19.40;74.70;;;;;;5109684;28;20486;-66
2022/09/11 07:55:02;;;;;;;28.43;24.37;;;19.30;74.70;;;;;;5096600;28;20467;-66
2022/09/11 07:57:33;;;;;;;30.00;24.87;;;19.30;75.20;;;;;;5114730;28;20503;-66
2022/09/11 08:00:04;;;;;;;27.47;22.63;;;19.30;74.60;;;;;;5109244;28;20485;-66
2022/09/11 08:02:35;;;;;;;35.30;26.43;;;19.30;76.20;;;;;;5106915;27;20483;-66
2022/09/11 08:05:08;;;;;;;32.63;25.00;;;19.30;77.10;;;;;;5104697;28;20968;-67
2022/09/11 08:07:39;;;;;;;33.37;25.90;;;19.20;77.80;;;;;;5104416;28;20509;-67
2022/09/11 08:10:10;;;;;;;27.80;23.40;;;19.10;76.80;;;;;;5103205;28;20534;-67
2022/09/11 08:12:56;;;;;;;32.00;23.63;;;19.00;78.00;;;;;;5097599;28;21006;-66
2022/09/11 08:15:29;;;;;;;34.20;26.00;;;19.00;79.70;;;;;;5110794;28;20450;-66
2022/09/11 08:18:00;;;;;;;36.53;26.90;;;19.00;80.90;;;;;;5107824;28;20469;-66
2022/09/11 08:20:32;;;;;;;30.87;24.40;;;18.80;80.10;;;;;;5105673;28;20484;-66
2022/09/11 08:23:03;;;;;;;32.50;25.20;;;18.80;81.30;;;;;;5103605;28;20553;-66
2022/09/11 08:25:36;;;;;;;29.80;25.20;;;18.80;80.10;;;;;;5118380;28;20513;-66
2022/09/11 08:28:07;;;;;;;33.13;25.30;;;18.80;80.10;;;;;;5106322;28;20537;-66
2022/09/11 08:30:38;;;;;;;31.03;25.70;;;18.80;82.60;;;;;;5105540;28;20511;-66
2022/09/11 08:33:09;;;;;;;34.83;24.03;;;18.70;81.30;;;;;;5103764;28;20494;-66
2022/09/11 08:35:41;;;;;;;33.13;25.43;;;18.70;83.10;;;;;;5108888;28;20429;-66
2022/09/11 08:38:12;;;;;;;31.43;25.63;;;18.60;84.20;;;;;;5096466;28;20459;-66
2022/09/11 08:40:43;;;;;;;33.90;26.07;;;18.70;84.60;;;;;;5103591;28;20437;-66
2022/09/11 08:43:21;;;;;;;28.73;23.50;;;18.60;85.20;;;;;;5107699;28;20521;-66
2022/09/11 08:45:58;;;;;;;33.70;24.90;;;18.60;87.10;;;;;;5087900;28;20467;-66
2022/09/11 08:48:36;;;;;;;32.10;24.93;;;18.50;86.20;;;;;;5106966;28;20441;-66
2022/09/11 08:51:10;;;;;;;31.63;24.50;;;18.50;88.60;;;;;;5103363;28;20515;-66
2022/09/11 08:53:41;;;;;;;34.73;24.50;;;18.50;87.60;;;;;;5107969;28;20432;-66
2022/09/11 08:56:16;;;;;;;32.77;24.93;;;18.50;88.00;;;;;;5104234;28;20527;-66
2022/09/11 08:59:01;;;;;;;30.07;24.93;;;18.40;87.90;;;;;;5105396;28;20484;-67
2022/09/11 09:01:39;;;;;;;29.40;24.70;;;18.30;88.80;;;;;;5109616;28;20846;-66
2022/09/11 09:04:40;;;;;;;31.57;24.40;;;18.40;88.90;;;;;;5118308;28;20860;-66
2022/09/11 09:07:22;;;;;;;30.43;24.10;;;18.30;88.90;;;;;;5094186;28;20528;-66
2022/09/11 09:10:03;;;;;;;31.27;24.73;;;18.40;90.80;;;;;;5094688;28;20458;-66
2022/09/11 09:12:44;;;;;;;29.37;24.17;;;18.30;90.90;;;;;;5106998;28;20499;-66
2022/09/11 09:15:40;;;;;;;33.03;26.47;;;18.30;91.50;;;;;;5104895;28;20458;-66
2022/09/11 09:18:15;;;;;;;29.60;23.40;;;18.20;92.10;;;;;;5112325;28;20462;-66
2022/09/11 09:20:52;;;;;;;35.60;26.10;;;18.20;92.50;;;;;;5104839;28;20462;-66
2022/09/11 09:23:29;;;;;;;31.90;25.03;;;18.20;91.90;;;;;;5102652;28;20482;-66
2022/09/11 09:26:01;;;;;;;30.77;25.03;;;18.20;92.20;;;;;;5107897;28;20464;-66
2022/09/11 09:28:35;;;;;;;28.43;23.90;;;18.30;92.20;;;;;;5102750;28;20436;-66
2022/09/11 09:31:09;;;;;;;29.10;23.77;;;18.30;92.30;;;;;;5115681;28;20511;-66
2022/09/11 09:33:50;;;;;;;33.23;25.60;;;18.30;92.80;;;;;;5106808;28;20469;-65
2022/09/11 09:36:24;;;;;;;29.67;23.50;;;18.20;92.40;;;;;;5103845;28;20485;-66
2022/09/11 09:38:58;;;;;;;30.53;25.60;;;18.20;93.80;;;;;;5117183;28;20441;-66
2022/09/11 09:41:55;;;;;;;33.60;25.67;;;18.40;93.20;;;;;;5101198;28;20528;-66
2022/09/11 09:44:38;;;;;;;33.70;25.80;;;18.50;93.80;;;;;;5097544;28;20453;-66
2022/09/11 09:47:12;;;;;;;34.27;25.80;;;18.40;94.00;;;;;;5106878;28;20798;-66
2022/09/11 09:49:44;;;;;;;32.17;26.30;;;18.40;94.80;;;;;;5111692;28;20437;-67
2022/09/11 09:52:19;;;;;;;35.83;26.77;;;18.40;95.30;;;;;;5102872;28;20538;-66
2022/09/11 09:54:58;;;;;;;37.67;25.20;;;18.40;94.40;;;;;;5104455;28;20503;-65
2022/09/11 09:57:33;;;;;;;35.70;27.10;;;18.50;95.30;;;;;;5107594;28;20449;-66
2022/09/11 10:00:07;;;;;;;29.77;23.80;;;18.50;95.90;;;;;;5096585;28;20814;-66
2022/09/11 10:02:44;;;;;;;34.17;26.23;;;18.50;96.70;;;;;;5113144;28;20428;-65
2022/09/11 10:05:22;;;;;;;34.13;25.50;;;18.50;94.70;;;;;;5101609;28;20490;-66
2022/09/11 10:07:54;;;;;;;36.37;24.60;;;18.40;94.80;;;;;;5108025;28;20594;-66
2022/09/11 10:10:30;;;;;;;33.07;26.20;;;18.30;95.20;;;;;;5109753;28;20428;-66
2022/09/11 10:13:02;;;;;;;35.43;26.00;;;18.30;95.70;;;;;;5100051;28;20432;-66
2022/09/11 10:15:50;;;;;;;33.63;27.20;;;18.30;95.30;;;;;;5111775;28;20484;-66
2022/09/11 10:18:38;;;;;;;37.60;26.43;;;18.30;95.90;;;;;;5104686;28;20452;-66
2022/09/11 10:21:24;;;;;;;33.53;25.23;;;18.20;96.00;;;;;;5105048;28;20486;-66
2022/09/11 10:23:57;;;;;;;33.30;25.70;;;18.20;97.90;;;;;;5105786;28;20521;-66
2022/09/11 10:26:34;;;;;;;31.97;25.87;;;18.20;97.00;;;;;;5118795;28;20467;-66
2022/09/11 10:29:09;;;;;;;32.77;26.50;;;18.20;98.40;;;;;;5114889;28;20483;-66
2022/09/11 10:31:42;;;;;;;31.90;24.40;;;18.20;97.80;;;;;;5105561;28;20450;-66
2022/09/11 10:34:19;;;;;;;39.07;27.50;;;18.20;98.00;;;;;;5110212;28;20425;-66
2022/09/11 10:36:57;;;;;;;34.47;26.57;;;18.20;97.80;;;;;;5107357;28;20444;-67
2022/09/11 10:39:31;;;;;;;35.40;25.60;;;18.30;98.50;;;;;;5107639;28;20432;-67
2022/09/11 10:42:15;;;;;;;31.43;25.00;;;18.30;97.70;;;;;;5108991;28;20471;-66
2022/09/11 10:44:48;;;;;;;28.90;24.93;;;18.30;98.00;;;;;;5106506;28;20502;-67
2022/09/11 10:47:23;;;;;;;32.17;24.07;;;18.40;97.80;;;;;;5118504;28;20514;-65
2022/09/11 10:50:19;;;;;;;32.17;24.87;;;18.40;97.80;;;;;;5110693;28;20436;-66
2022/09/11 10:53:02;;;;;;;33.40;25.20;;;18.50;97.60;;;;;;5107266;28;20519;-66
2022/09/11 10:55:39;;;;;;;31.83;23.70;;;18.50;97.50;;;;;;5104768;28;20455;-66
2022/09/11 10:58:17;;;;;;;34.63;25.07;;;18.60;97.90;;;;;;5110927;28;20454;-66
2022/09/11 11:00:50;;;;;;;32.30;24.27;;;18.60;97.90;;;;;;5112141;28;20466;-66
2022/09/11 11:03:25;;;;;;;34.10;25.87;;;18.60;98.10;;;;;;5110393;28;20494;-67
2022/09/11 11:06:07;;;;;;;34.27;24.90;;;18.70;97.30;;;;;;5106787;28;20519;-66
2022/09/11 11:09:08;;;;;;;31.37;24.63;;;18.70;97.00;;;;;;5106910;28;20523;-67
2022/09/11 11:11:56;;;;;;;38.30;26.47;;;18.70;97.70;;;;;;5090852;28;20519;-67
2022/09/11 11:14:46;;;;;;;37.77;25.30;;;18.60;97.20;;;;;;5113006;28;20494;-66
2022/09/11 11:17:24;;;;;;;34.53;26.33;;;18.70;98.20;;;;;;5106536;28;20516;-66
2022/09/11 11:20:17;;;;;;;34.40;24.50;;;18.70;98.50;;;;;;5111540;28;20543;-66
2022/09/11 11:23:21;;;;;;;37.07;26.13;;;18.70;99.40;;;;;;5113404;28;20476;-66
2022/09/11 11:26:05;;;;;;;34.33;26.80;;;18.60;99.80;;;;;;5064851;28;20475;-66
2022/09/11 11:28:55;;;;;;;31.23;25.00;;;18.50;99.90;;;;;;5068930;28;20462;-66
2022/09/11 11:31:42;;;;;;;35.60;26.67;;;18.50;99.90;;;;;;5056269;28;20464;-66
2022/09/11 11:34:45;;;;;;;33.33;26.00;;;18.50;99.90;;;;;;5065421;28;20456;-66
2022/09/11 11:37:19;;;;;;;38.10;26.30;;;18.50;99.90;;;;;;4984621;28;20712;-67
2022/09/11 11:40:00;;;;;;;36.30;25.20;;;18.40;99.90;;;;;;4986135;28;20438;-66
2022/09/11 11:42:35;;;;;;;35.60;27.93;;;18.30;99.90;;;;;;4982731;28;20440;-66
2022/09/11 11:45:23;;;;;;;37.93;27.40;;;18.30;99.90;;;;;;4996310;28;20485;-66
2022/09/11 11:47:56;;;;;;;36.90;26.40;;;18.30;99.90;;;;;;4977732;28;20515;-66
2022/09/11 11:50:30;;;;;;;31.30;25.03;;;18.30;99.90;;;;;;4995589;28;20533;-66
2022/09/11 11:53:11;;;;;;;37.57;25.83;;;18.30;99.90;;;;;;4988615;28;20441;-66
2022/09/11 11:55:51;;;;;;;37.40;25.90;;;18.30;99.90;;;;;;4983604;28;20452;-66
2022/09/11 11:58:33;;;;;;;32.10;26.00;;;18.30;99.90;;;;;;4979194;28;20460;-66
2022/09/11 12:01:11;;;;;;;30.70;24.40;;;18.20;99.90;;;;;;4997377;28;20482;-66
2022/09/11 12:03:49;;;;;;;35.77;26.53;;;18.20;99.90;;;;;;5035028;28;20433;-66
2022/09/11 12:06:20;;;;;;;32.20;24.57;;;18.20;99.90;;;;;;5042166;28;20485;-67
2022/09/11 12:08:50;;;;;;;32.87;25.30;;;18.20;99.90;;;;;;5042523;28;20462;-66
2022/09/11 12:11:30;;;;;;;31.93;25.83;;;18.00;99.90;;;;;;5043601;28;20509;-66
2022/09/11 12:14:01;;;;;;;31.80;25.00;;;18.00;99.90;;;;;;5117999;28;20503;-67
2022/09/11 12:16:34;;;;;;;33.03;24.87;;;18.00;99.90;;;;;;5124107;28;20424;-66
2022/09/11 12:19:13;;;;;;;34.10;25.80;;;18.00;99.90;;;;;;5110896;28;20569;-66
2022/09/11 12:22:06;;;;;;;33.90;24.60;;;18.00;99.90;;;;;;5111752;28;20812;-66
2022/09/11 12:24:57;;;;;;;33.37;26.10;;;18.00;99.90;;;;;;5117972;28;20424;-67
2022/09/11 12:27:54;;;;;;;32.93;23.50;;;18.00;99.90;;;;;;5113337;28;20504;-66
2022/09/11 12:30:28;;;;;;;34.10;24.77;;;17.90;99.90;;;;;;5108933;28;22280;-66
2022/09/11 12:33:00;;;;;;;35.40;25.67;;;17.90;99.90;;;;;;5111874;28;20429;-66
2022/09/11 12:35:44;;;;;;;33.80;24.07;;;17.70;99.90;;;;;;5103042;28;20561;-66
2022/09/11 12:38:25;;;;;;;36.00;26.20;;;17.60;99.90;;;;;;5103989;28;20437;-67
2022/09/11 12:40:58;;;;;;;30.27;22.87;;;17.60;99.90;;;;;;5103202;28;20538;-66
2022/09/11 12:43:46;;;;;;;36.93;25.90;;;17.50;99.90;;;;;;5112663;28;20440;-66
2022/09/11 12:46:51;;;;;;;32.30;23.43;;;17.50;99.90;;;;;;5123477;28;20788;-66
2022/09/11 12:49:26;;;;;;;32.87;24.93;;;17.60;99.90;;;;;;5084940;28;20451;-66
2022/09/11 12:52:00;;;;;;;33.27;24.03;;;17.60;99.90;;;;;;5103572;28;20457;-66
2022/09/11 12:54:34;;;;;;;33.10;24.47;;;17.50;99.90;;;;;;5114911;28;20456;-66
2022/09/11 12:57:08;;;;;;;32.53;24.03;;;17.50;99.90;;;;;;5112188;28;20494;-66
2022/09/11 12:59:42;;;;;;;33.40;25.50;;;17.40;99.90;;;;;;5102987;28;20485;-66
2022/09/11 13:02:26;;;;;;;35.77;24.37;;;17.40;99.90;;;;;;5104611;28;20767;-66
2022/09/11 13:04:58;;;;;;;30.57;23.90;;;17.30;99.90;;;;;;5097489;28;20444;-66
2022/09/11 13:07:41;;;;;;;34.60;24.40;;;17.20;99.90;;;;;;5103141;28;20530;-67
2022/09/11 13:10:27;;;;;;;33.80;24.30;;;17.10;99.90;;;;;;5104113;28;20467;-66